Time;durP1;ratioP1;P1;durP2;ratioP2;P2;SDS_P1;SDS_P2;PMS_P1;PMS_P2;Temp;Humidity;BMP_temperature;BMP_pressure;BME280_temperature;BME280_humidity;BME280_pressure;Samples;Min_cycle;Max_cycle;Signal;HPM_P1;HPM_P2
2021/10/28 00:14:11;;;;;;;19.25;8.23;;;;;;;3.66;100.00;99334.56;5013630;28;20045;-71
2021/10/28 00:16:36;;;;;;;26.48;9.25;;;;;;;3.84;100.00;99355.22;5019267;28;20033;-71
2021/10/28 00:19:04;;;;;;;30.17;10.55;;;;;;;3.80;100.00;99361.84;5015534;28;20037;-71
2021/10/28 00:21:35;;;;;;;26.58;9.48;;;;;;;3.76;100.00;99360.47;5028449;28;20451;-71
2021/10/28 00:24:04;;;;;;;21.58;8.75;;;;;;;3.71;100.00;99359.06;5023945;28;20122;-72
2021/10/28 00:26:31;;;;;;;20.65;8.57;;;;;;;3.61;100.00;99360.91;5026363;28;20043;-71
2021/10/28 00:29:01;;;;;;;23.95;9.45;;;;;;;3.71;100.00;99360.91;5022562;28;20406;-71
2021/10/28 00:31:30;;;;;;;22.50;9.02;;;;;;;3.54;100.00;99341.13;5027792;28;20039;-71
2021/10/28 00:33:56;;;;;;;18.67;7.75;;;;;;;3.48;100.00;99353.25;5025461;28;20022;-71
2021/10/28 00:36:23;;;;;;;30.15;9.13;;;;;;;3.42;100.00;99344.94;5014668;28;20029;-71
2021/10/28 00:38:49;;;;;;;48.38;10.10;;;;;;;3.50;100.00;99347.72;5031703;28;20025;-72
2021/10/28 00:41:16;;;;;;;43.53;10.57;;;;;;;3.48;100.00;99339.00;5027979;28;20481;-71
2021/10/28 00:43:48;;;;;;;33.85;11.20;;;;;;;3.47;100.00;99351.53;5028614;28;20029;-71
2021/10/28 00:46:16;;;;;;;39.63;10.23;;;;;;;3.41;100.00;99348.59;5039344;28;20018;-71
2021/10/28 00:48:43;;;;;;;48.55;11.70;;;;;;;3.45;100.00;99358.84;5018985;28;20036;-71
2021/10/28 00:51:08;;;;;;;59.13;11.98;;;;;;;3.34;100.00;99352.84;5027389;28;20022;-71
2021/10/28 00:53:34;;;;;;;39.83;10.57;;;;;;;3.36;100.00;99351.72;5026076;28;20092;-71
2021/10/28 00:56:02;;;;;;;25.15;8.63;;;;;;;3.24;100.00;99339.47;5029538;28;20024;-71
2021/10/28 00:58:30;;;;;;;24.83;8.32;;;;;;;3.11;100.00;99336.25;5019021;28;20029;-71
2021/10/28 01:00:56;;;;;;;28.58;8.43;;;;;;;3.11;100.00;99352.31;5026011;28;20025;-71
2021/10/28 01:03:22;;;;;;;18.40;7.55;;;;;;;3.08;100.00;99348.06;5012932;28;20108;-71
2021/10/28 01:05:48;;;;;;;16.58;7.18;;;;;;;3.00;100.00;99340.75;5015035;28;20064;-71
2021/10/28 01:08:16;;;;;;;16.33;6.18;;;;;;;2.89;100.00;99337.41;5018833;28;20024;-71
2021/10/28 01:10:44;;;;;;;15.93;6.68;;;;;;;2.93;100.00;99336.13;5030170;28;20071;-71
2021/10/28 01:13:10;;;;;;;19.13;8.63;;;;;;;2.85;100.00;99321.63;5024729;28;20117;-71
2021/10/28 01:15:35;;;;;;;22.65;7.65;;;;;;;3.06;100.00;99337.50;5024972;28;20116;-71
2021/10/28 01:18:01;;;;;;;26.58;9.93;;;;;;;3.07;100.00;99338.38;5019209;28;20022;-71
2021/10/28 01:20:26;;;;;;;26.40;9.68;;;;;;;2.96;100.00;99326.03;5021580;28;20021;-71
2021/10/28 01:22:51;;;;;;;32.08;9.50;;;;;;;3.01;100.00;99333.59;5032629;28;20029;-71
2021/10/28 01:25:17;;;;;;;27.55;8.35;;;;;;;2.98;100.00;99331.19;5029589;28;20049;-71
2021/10/28 01:27:43;;;;;;;17.05;7.70;;;;;;;2.93;100.00;99322.75;5022366;28;20034;-71
2021/10/28 01:30:08;;;;;;;12.75;6.80;;;;;;;3.09;100.00;99336.38;5026032;28;20033;-71
2021/10/28 01:32:34;;;;;;;12.18;6.03;;;;;;;3.01;100.00;99323.75;5034688;28;20027;-71
2021/10/28 01:34:59;;;;;;;10.35;5.75;;;;;;;3.13;100.00;99329.78;5030779;28;20397;-71
2021/10/28 01:37:24;;;;;;;13.23;6.05;;;;;;;3.12;100.00;99338.81;5026951;28;20029;-71
2021/10/28 01:39:50;;;;;;;12.57;6.40;;;;;;;3.05;100.00;99319.81;5023368;28;20025;-71
2021/10/28 01:42:15;;;;;;;11.85;6.45;;;;;;;3.11;100.00;99314.88;5033898;28;20047;-71
2021/10/28 01:44:41;;;;;;;12.85;6.95;;;;;;;3.33;100.00;99337.75;5029755;28;20025;-71
2021/10/28 01:47:07;;;;;;;17.25;8.18;;;;;;;3.33;100.00;99330.59;5027998;28;20022;-71
2021/10/28 01:49:33;;;;;;;12.45;7.63;;;;;;;3.28;100.00;99325.69;5028615;28;20483;-71
2021/10/28 01:51:58;;;;;;;13.95;7.43;;;;;;;3.25;100.00;99312.59;5025184;28;20044;-71
2021/10/28 01:54:25;;;;;;;19.20;7.30;;;;;;;3.35;100.00;99323.25;5027602;28;20040;-71
2021/10/28 01:56:52;;;;;;;16.77;7.40;;;;;;;3.16;100.00;99334.00;5034976;28;20021;-71
2021/10/28 01:59:18;;;;;;;18.10;7.15;;;;;;;2.97;100.00;99325.03;5034262;28;20033;-71
2021/10/28 02:01:44;;;;;;;13.02;7.20;;;;;;;2.80;100.00;99328.41;5023519;28;20032;-71
2021/10/28 02:04:11;;;;;;;21.23;7.93;;;;;;;2.69;100.00;99309.84;5020021;28;20148;-71
2021/10/28 02:06:36;;;;;;;17.25;7.90;;;;;;;2.80;100.00;99315.91;5029482;28;20033;-71
2021/10/28 02:09:03;;;;;;;16.33;7.95;;;;;;;2.89;100.00;99318.72;5034922;28;20029;-71
2021/10/28 02:11:29;;;;;;;17.88;8.25;;;;;;;2.81;100.00;99298.88;5031758;28;20053;-71
2021/10/28 02:13:58;;;;;;;16.25;8.85;;;;;;;2.87;100.00;99316.16;5021739;28;20508;-71
2021/10/28 02:16:27;;;;;;;;;;;;;;;2.99;100.00;99314.19;5025597;28;20025;-71
2021/10/28 02:18:53;;;;;;;16.02;7.78;;;;;;;2.92;100.00;99310.41;5021512;28;20020;-71
2021/10/28 02:21:18;;;;;;;15.32;7.03;;;;;;;2.69;100.00;99291.97;5028919;28;20114;-71
2021/10/28 02:23:43;;;;;;;17.80;8.48;;;;;;;2.76;100.00;99302.97;5030024;28;20028;-71
2021/10/28 02:26:08;;;;;;;14.77;8.32;;;;;;;2.76;100.00;99306.47;5032169;28;20395;-71
2021/10/28 02:28:34;;;;;;;20.70;8.93;;;;;;;2.74;100.00;99291.56;5025957;28;20029;-71
2021/10/28 02:30:59;;;;;;;18.70;8.82;;;;;;;2.73;100.00;99293.41;5032547;28;20033;-71
2021/10/28 02:33:25;;;;;;;20.88;9.50;;;;;;;2.62;100.00;99273.00;5030449;28;20026;-71
2021/10/28 02:35:50;;;;;;;19.25;9.00;;;;;;;2.64;100.00;99281.72;5033493;28;20026;-71
2021/10/28 02:38:15;;;;;;;16.20;8.02;;;;;;;2.71;100.00;99300.69;5029627;28;20040;-71
2021/10/28 02:40:41;;;;;;;16.02;8.65;;;;;;;2.61;100.00;99291.84;5023262;28;20463;-71
2021/10/28 02:43:06;;;;;;;13.20;7.93;;;;;;;2.58;100.00;99286.78;5027290;28;20026;-71
2021/10/28 02:45:32;;;;;;;20.30;9.32;;;;;;;2.59;100.00;99289.31;5031865;28;20498;-71
2021/10/28 02:47:57;;;;;;;17.52;9.57;;;;;;;2.70;100.00;99309.72;5029223;28;20148;-71
2021/10/28 02:50:23;;;;;;;22.40;9.32;;;;;;;2.69;100.00;99305.34;5029873;28;20029;-71
2021/10/28 02:52:48;;;;;;;21.80;12.35;;;;;;;2.71;100.00;99291.84;5022821;28;20033;-71
2021/10/28 02:55:14;;;;;;;22.33;10.35;;;;;;;2.76;100.00;99297.63;5029165;28;20433;-71
2021/10/28 02:57:41;;;;;;;18.48;9.23;;;;;;;2.74;100.00;99311.09;5030188;28;20051;-71
2021/10/28 03:00:08;;;;;;;18.05;9.40;;;;;;;2.74;100.00;99311.09;5030197;28;20033;-71
2021/10/28 03:02:33;;;;;;;22.30;10.75;;;;;;;2.72;100.00;99305.03;5021882;28;20079;-71
2021/10/28 03:04:58;;;;;;;26.23;12.32;;;;;;;2.64;100.00;99292.38;5028820;28;20552;-71
2021/10/28 03:07:24;;;;;;;28.80;12.20;;;;;;;2.75;100.00;99294.09;5019323;28;20033;-71
2021/10/28 03:09:49;;;;;;;31.40;13.45;;;;;;;2.80;100.00;99297.19;5027519;28;20483;-71
2021/10/28 03:12:15;;;;;;;35.00;14.68;;;;;;;2.95;100.00;99294.06;5031449;28;20045;-71
2021/10/28 03:14:43;;;;;;;31.85;14.88;;;;;;;3.03;100.00;99300.38;5022880;28;20088;-71
2021/10/28 03:28:02;;;;;;;33.00;14.70;;;;;;;3.22;100.00;99310.22;5033926;28;20085;-71
2021/10/28 03:30:28;;;;;;;33.50;14.85;;;;;;;3.07;100.00;99298.28;5033970;28;20025;-71
2021/10/28 03:32:53;;;;;;;35.40;15.57;;;;;;;3.23;100.00;99308.38;5031421;28;20069;-71
2021/10/28 03:35:19;;;;;;;36.45;15.50;;;;;;;3.09;100.00;99274.91;5025239;28;20083;-71
2021/10/28 04:01:26;;;;;;;46.03;19.60;;;;;;;3.68;100.00;99315.72;5031824;28;20036;-70
2021/10/28 04:30:25;;;;;;;46.47;20.45;;;;;;;4.87;100.00;99272.78;5045867;28;20037;-76
2021/10/28 04:32:53;;;;;;;47.97;19.58;;;;;;;4.88;100.00;99275.31;5046827;28;20029;-78
2021/10/28 04:35:19;;;;;;;45.63;19.58;;;;;;;4.98;100.00;99302.06;5075981;22;20510;-70
2021/10/28 04:37:46;;;;;;;41.78;19.23;;;;;;;4.63;100.00;99242.09;5043065;28;20033;-76
2021/10/28 04:40:13;;;;;;;42.60;18.55;;;;;;;4.99;100.00;99293.84;5052509;28;20060;-73
2021/10/28 04:42:38;;;;;;;39.92;18.95;;;;;;;4.89;100.00;99274.31;5035748;28;20449;-72
2021/10/28 04:45:04;;;;;;;41.05;18.38;;;;;;;4.70;100.00;99259.25;5036958;28;20057;-75
2021/10/28 04:47:30;;;;;;;43.30;18.77;;;;;;;4.77;100.00;99278.25;5051502;28;20049;-71
2021/10/28 04:49:56;;;;;;;40.30;19.40;;;;;;;4.58;100.00;99261.34;5050575;28;20057;-73
2021/10/28 04:52:22;;;;;;;49.58;20.10;;;;;;;4.63;100.00;99276.09;5049111;28;20028;-71
2021/10/28 04:54:48;;;;;;;42.85;18.98;;;;;;;4.69;100.00;99270.97;5050974;28;20028;-73
2021/10/28 04:57:13;;;;;;;43.80;18.30;;;;;;;4.58;100.00;99263.16;5048904;28;20032;-73
2021/10/28 04:59:39;;;;;;;36.50;17.38;;;;;;;4.53;100.00;99255.59;5044035;28;20025;-72
2021/10/28 05:02:05;;;;;;;45.08;19.02;;;;;;;4.57;100.00;99264.16;5042885;28;20470;-71
2021/10/28 05:04:30;;;;;;;46.33;18.30;;;;;;;4.65;100.00;99271.44;5049268;28;20075;-77
2021/10/28 05:06:55;;;;;;;47.45;19.95;;;;;;;4.58;100.00;99257.78;5047973;28;20029;-71
2021/10/28 05:09:30;;;;;;;47.53;20.77;;;;;;;4.94;100.00;99277.38;5052670;28;20036;-72
2021/10/28 05:11:56;;;;;;;49.35;20.08;;;;;;;4.76;100.00;99263.97;5050272;28;20029;-74
2021/10/28 05:14:22;;;;;;;44.05;19.95;;;;;;;4.59;100.00;99254.97;5051344;28;20025;-71
2021/10/28 05:16:51;;;;;;;50.55;21.10;;;;;;;4.62;100.00;99285.97;5045537;28;20033;-71
2021/10/28 05:19:16;;;;;;;47.03;19.67;;;;;;;4.67;100.00;99272.97;5041253;28;20035;-74
2021/10/28 05:21:41;;;;;;;53.63;19.98;;;;;;;4.56;100.00;99249.94;5047355;28;20028;-72
2021/10/28 05:24:07;;;;;;;53.90;20.73;;;;;;;4.68;100.00;99274.63;5049216;28;20078;-74
2021/10/28 05:26:32;;;;;;;39.78;17.13;;;;;;;4.47;100.00;99255.34;5048902;28;20016;-73
2021/10/28 05:28:57;;;;;;;30.88;14.93;;;;;;;4.35;100.00;99276.19;5042471;28;20032;-70
2021/10/28 05:31:23;;;;;;;36.75;16.50;;;;;;;4.04;100.00;99260.44;5051145;28;20552;-73
2021/10/28 05:33:49;;;;;;;38.17;17.00;;;;;;;4.07;100.00;99280.72;5048959;28;20444;-74
2021/10/28 05:36:14;;;;;;;37.22;17.88;;;;;;;4.02;100.00;99265.09;5043575;28;20039;-72
2021/10/28 05:38:40;;;;;;;41.85;18.13;;;;;;;3.99;100.00;99277.97;5043978;28;20382;-70
2021/10/28 05:41:05;;;;;;;40.50;17.38;;;;;;;3.84;100.00;99272.25;5049762;28;20032;-70
2021/10/28 05:43:31;;;;;;;43.92;19.30;;;;;;;3.85;100.00;99276.59;5047441;28;20040;-74
2021/10/28 05:45:56;;;;;;;38.63;16.80;;;;;;;3.56;100.00;99245.47;5051580;28;20036;-70
2021/10/28 05:48:21;;;;;;;41.15;18.02;;;;;;;3.58;100.00;99264.06;5042291;28;20064;-73
2021/10/28 05:50:47;;;;;;;42.25;17.50;;;;;;;3.58;100.00;99274.78;5049596;28;20025;-69
2021/10/28 05:53:13;;;;;;;47.80;18.95;;;;;;;3.53;100.00;99244.94;5048561;28;20108;-70
2021/10/28 05:55:38;;;;;;;54.45;20.35;;;;;;;3.75;100.00;99276.69;5050850;28;20028;-71
2021/10/28 05:58:04;;;;;;;54.10;19.70;;;;;;;3.99;100.00;99288.66;5052484;28;20028;-70
2021/10/28 06:00:30;;;;;;;52.33;19.60;;;;;;;3.97;100.00;99258.53;5049883;28;20032;-70
2021/10/28 06:02:55;;;;;;;50.75;19.20;;;;;;;4.04;100.00;99273.84;5047583;28;20025;-70
2021/10/28 06:05:21;;;;;;;48.50;19.63;;;;;;;4.00;100.00;99275.13;5048351;28;20074;-68
2021/10/28 06:07:47;;;;;;;49.28;19.83;;;;;;;3.89;100.00;99272.66;5053078;28;20504;-70
2021/10/28 06:10:16;;;;;;;46.47;18.88;;;;;;;3.86;100.00;99276.47;5050449;28;20017;-66
2021/10/28 06:12:47;;;;;;;49.05;19.92;;;;;;;3.66;100.00;99261.50;5050862;28;20028;-74
2021/10/28 06:15:14;;;;;;;44.00;17.73;;;;;;;3.67;100.00;99277.41;5053286;28;20078;-73
2021/10/28 06:18:11;;;;;;;44.60;17.83;;;;;;;3.63;100.00;99283.19;5044306;28;20372;-72
2021/10/28 06:20:37;;;;;;;40.72;17.05;;;;;;;3.50;100.00;99260.28;5055114;28;20450;-76
2021/10/28 06:23:03;;;;;;;49.88;18.35;;;;;;;3.36;100.00;99238.53;5049257;28;20075;-73
2021/10/28 06:25:29;;;;;;;43.22;18.83;;;;;;;3.53;100.00;99251.13;5046269;28;20024;-72
2021/10/28 06:27:54;;;;;;;50.22;19.08;;;;;;;3.67;100.00;99280.09;5069165;28;20033;-73
2021/10/28 06:30:19;;;;;;;50.03;18.98;;;;;;;3.59;100.00;99257.72;5053791;28;20032;-73
2021/10/28 06:32:57;;;;;;;43.65;18.77;;;;;;;3.77;100.00;99288.06;5049003;28;20043;-66
2021/10/28 06:35:24;;;;;;;43.22;17.40;;;;;;;3.85;100.00;99287.31;5047288;28;20021;-72
2021/10/28 06:37:50;;;;;;;41.63;17.50;;;;;;;3.89;100.00;99294.06;5052837;28;20025;-73
2021/10/28 06:40:20;;;;;;;38.15;16.17;;;;;;;3.78;100.00;99264.84;5056699;28;20110;-73
2021/10/28 06:42:46;;;;;;;35.30;16.50;;;;;;;3.78;100.00;99270.19;5066969;28;20111;-68
2021/10/28 06:45:13;;;;;;;38.78;16.92;;;;;;;3.90;100.00;99283.22;5047880;28;20119;-68
2021/10/28 06:47:38;;;;;;;38.58;17.25;;;;;;;3.72;100.00;99264.44;5052022;28;20429;-73
2021/10/28 06:50:07;;;;;;;40.00;16.15;;;;;;;3.95;100.00;99290.78;5051365;28;20029;-74
2021/10/28 06:55:26;;;;;;;41.53;16.70;;;;;;;3.90;100.00;99263.63;5047196;28;20035;-69
2021/10/28 07:03:03;;;;;;;36.92;16.00;;;;;;;4.23;100.00;99274.72;5052333;28;20082;-73
2021/10/28 07:05:28;;;;;;;35.03;16.33;;;;;;;4.43;100.00;99276.25;5051460;28;20024;-69
2021/10/28 07:07:54;;;;;;;38.10;16.90;;;;;;;4.69;100.00;99286.19;5053514;28;20033;-67
2021/10/28 07:10:22;;;;;;;32.22;15.93;;;;;;;4.67;100.00;99289.03;5050176;28;20053;-68
2021/10/28 07:15:27;;;;;;;30.63;15.07;;;;;;;5.03;100.00;99281.81;5042440;28;20118;-74
2021/10/28 07:18:09;;;;;;;27.33;14.02;;;;;;;5.21;100.00;99275.53;5045655;28;20086;-72
2021/10/28 07:31:56;;;;;;;22.40;11.77;;;;;;;11.43;81.56;99255.03;5050158;28;20112;-72
2021/10/28 07:54:54;;;;;;;19.20;10.90;;;;;;;12.94;64.20;99255.84;5044351;28;20665;-74
2021/10/28 08:16:03;;;;;;;14.20;10.57;;;;;;;18.95;46.17;99226.06;5046052;28;20988;-74
2021/10/28 08:31:05;;;;;;;15.38;9.25;;;;;;;20.88;41.86;99200.66;5049410;28;20090;-75
2021/10/28 08:33:30;;;;;;;13.88;9.15;;;;;;;21.94;40.15;99194.25;5051645;28;20466;-76
2021/10/28 08:36:06;;;;;;;13.38;9.65;;;;;;;21.78;39.67;99193.34;5051087;28;20106;-73
2021/10/28 08:38:34;;;;;;;11.95;8.73;;;;;;;21.33;40.06;99200.22;5043642;28;20053;-68
2021/10/28 08:41:00;;;;;;;12.00;8.93;;;;;;;20.50;41.89;99205.19;5050860;28;20036;-69
2021/10/28 08:43:30;;;;;;;11.30;9.27;;;;;;;20.28;42.32;99202.50;5041354;28;20466;-69
2021/10/28 08:45:57;;;;;;;10.80;8.02;;;;;;;21.74;40.19;99199.66;5050158;28;20024;-70
2021/10/28 08:48:25;;;;;;;13.05;8.57;;;;;;;20.89;41.15;99202.31;5047176;28;20755;-70
2021/10/28 08:51:01;;;;;;;9.73;7.32;;;;;;;21.13;40.31;99198.13;5046122;28;20033;-70
2021/10/28 08:54:43;;;;;;;11.18;8.30;;;;;;;20.66;41.49;99196.03;5050673;28;20059;-70
2021/10/28 08:56:25;;;;;;;12.43;8.10;;;;;;;20.73;41.55;99193.94;5041806;28;20191;-70
2021/10/28 09:24:37;;;;;;;12.85;8.20;;;;;;;21.80;39.03;99160.88;5045839;28;20873;-71
2021/10/28 09:27:22;;;;;;;12.02;7.68;;;;;;;20.95;40.81;99166.34;5050298;28;20028;-71
2021/10/28 09:32:37;;;;;;;12.02;8.55;;;;;;;20.93;40.49;99164.94;5047614;28;20035;-71
2021/10/28 09:46:52;;;;;;;14.23;8.98;;;;;;;22.20;38.78;99155.81;5011296;28;20469;-71
2021/10/28 09:51:50;;;;;;;13.75;8.18;;;;;;;22.42;39.17;99159.16;5053002;28;20029;-71
2021/10/28 10:00:12;;;;;;;15.20;8.82;;;;;;;21.61;40.39;99154.16;5052838;28;20524;-71
2021/10/28 10:02:40;;;;;;;11.73;7.25;;;;;;;21.40;40.81;99151.28;5051075;28;20040;-71
2021/10/28 10:05:24;;;;;;;12.40;9.38;;;;;;;22.14;38.76;99145.81;5047712;28;20083;-71
2021/10/28 10:07:54;;;;;;;13.48;9.95;;;;;;;20.40;41.72;99167.44;5046224;28;20037;-71
2021/10/28 10:10:29;;;;;;;11.52;8.68;;;;;;;20.78;41.11;99151.91;5041323;28;20032;-73
2021/10/28 10:12:59;;;;;;;11.70;9.00;;;;;;;21.99;39.37;99139.19;5048323;28;20039;-70
2021/10/28 10:15:24;;;;;;;;;;;;;;;20.44;41.60;99152.09;5049399;28;20390;-72
2021/10/28 10:17:55;;;;;;;13.73;9.02;;;;;;;20.12;43.28;99160.25;5050792;28;19916;-73
2021/10/28 10:20:30;;;;;;;13.20;9.15;;;;;;;20.93;41.04;99156.69;5051322;28;20091;-72
2021/10/28 10:26:30;;;;;;;12.32;8.93;;;;;;;22.78;37.83;99139.91;5046003;28;20043;-72
2021/10/28 12:22:11;;;;;;;10.50;9.10;;;;;;;27.69;30.54;98995.53;5030332;28;20497;-68
2021/10/28 12:44:23;;;;;;;12.70;8.43;;;;;;;25.98;31.36;98975.91;5031501;28;20433;-68
2021/10/28 13:55:16;;;;;;;10.75;9.00;;;;;;;23.40;37.08;98945.50;5012895;28;20121;-70
2021/10/28 14:39:08;;;;;;;9.23;6.68;;;;;;;20.87;42.00;98910.22;4991918;28;20847;-68
2021/10/28 15:28:14;;;;;;;12.52;8.63;;;;;;;18.71;46.49;98895.63;5049316;28;20099;-68
2021/10/28 15:35:58;;;;;;;16.40;9.68;;;;;;;17.55;49.84;98885.31;5043525;28;20087;-69
2021/10/28 15:54:32;;;;;;;37.20;19.15;;;;;;;13.75;63.75;98896.69;5047737;28;20040;-66
2021/10/28 15:57:07;;;;;;;34.30;15.55;;;;;;;13.43;64.50;98892.31;5044991;28;20057;-66
2021/10/28 16:24:12;;;;;;;16.05;9.05;;;;;;;10.79;83.84;98880.56;5030194;28;20470;-66
2021/10/28 16:26:38;;;;;;;17.20;9.20;;;;;;;10.65;84.28;98884.28;5027697;28;20013;-66
2021/10/28 16:29:07;;;;;;;17.70;9.52;;;;;;;10.48;85.94;98868.41;5030433;28;20598;-66
2021/10/28 16:31:34;;;;;;;24.35;10.10;;;;;;;10.49;85.97;98883.59;5030543;28;20032;-66
2021/10/28 16:33:59;;;;;;;15.45;8.82;;;;;;;10.36;86.93;98891.63;5030739;28;20033;-66
2021/10/28 16:36:25;;;;;;;15.68;9.32;;;;;;;10.26;87.41;98881.13;5030585;28;20033;-66
2021/10/28 16:38:52;;;;;;;14.38;8.25;;;;;;;10.23;88.72;98888.81;5030092;28;20505;-66
2021/10/28 16:41:17;;;;;;;16.50;8.32;;;;;;;10.10;88.98;98893.09;5030788;28;20764;-66
2021/10/28 16:43:43;;;;;;;15.80;8.30;;;;;;;10.02;90.67;98887.88;5028504;28;20036;-66
2021/10/28 16:46:08;;;;;;;16.10;8.32;;;;;;;9.96;90.33;98888.66;5028284;28;20064;-66
2021/10/28 16:48:35;;;;;;;14.68;7.80;;;;;;;9.85;90.74;98894.59;5028564;28;20674;-66
2021/10/28 16:51:01;;;;;;;15.20;7.43;;;;;;;9.77;91.74;98892.91;5033209;28;20538;-66
2021/10/28 16:53:26;;;;;;;19.98;7.22;;;;;;;9.68;92.20;98894.06;5028758;28;20033;-66
2021/10/28 16:55:51;;;;;;;15.00;7.07;;;;;;;9.61;93.16;98887.75;5029163;28;20549;-66
2021/10/28 16:58:17;;;;;;;13.88;8.05;;;;;;;9.51;93.57;98890.81;5027775;28;20494;-68
2021/10/28 17:00:42;;;;;;;16.95;7.45;;;;;;;9.51;93.61;98889.94;5028737;28;20116;-66
2021/10/28 17:03:08;;;;;;;17.02;9.23;;;;;;;9.31;95.49;98882.50;5030847;28;20025;-66
2021/10/28 17:05:33;;;;;;;15.52;9.23;;;;;;;9.18;96.10;98893.19;5028271;28;20036;-66
2021/10/28 17:07:59;;;;;;;11.40;8.00;;;;;;;9.10;96.61;98893.31;5028154;28;20053;-66
2021/10/28 17:10:24;;;;;;;11.82;8.18;;;;;;;9.17;96.73;98895.06;5027474;28;20033;-66
2021/10/28 17:12:49;;;;;;;13.35;7.93;;;;;;;9.21;96.31;98887.41;5029735;28;20481;-70
2021/10/28 17:15:15;;;;;;;15.38;8.50;;;;;;;9.12;96.55;98888.56;5028528;28;20037;-66
2021/10/28 17:17:41;;;;;;;16.55;8.80;;;;;;;8.96;97.25;98887.78;5026932;28;20033;-67
2021/10/28 17:20:07;;;;;;;14.05;8.07;;;;;;;8.89;98.18;98900.34;5027480;28;20029;-66
2021/10/28 17:22:34;;;;;;;16.67;8.75;;;;;;;8.81;98.36;98891.53;5026227;28;20402;-66
2021/10/28 17:25:03;;;;;;;22.33;10.38;;;;;;;8.70;98.95;98903.66;5025842;28;20376;-65
2021/10/28 17:27:28;;;;;;;22.92;11.30;;;;;;;8.66;99.83;98891.56;5031490;28;20462;-65
2021/10/28 17:29:53;;;;;;;24.95;11.23;;;;;;;8.58;100.00;98897.06;5028985;28;20059;-66
2021/10/28 17:32:19;;;;;;;20.52;11.35;;;;;;;8.51;100.00;98903.22;5030609;28;20043;-66
2021/10/28 17:34:44;;;;;;;19.30;12.02;;;;;;;8.42;100.00;98904.34;5027371;28;20463;-66
2021/10/28 17:37:09;;;;;;;20.17;11.80;;;;;;;8.41;100.00;98894.59;5030648;28;20029;-66
2021/10/28 17:39:35;;;;;;;20.02;11.98;;;;;;;8.35;100.00;98896.09;5030709;28;20410;-67
2021/10/28 17:42:00;;;;;;;16.50;10.73;;;;;;;8.40;100.00;98906.38;5038173;28;20026;-66
2021/10/28 17:44:37;;;;;;;22.50;12.70;;;;;;;8.26;100.00;98896.41;5052926;28;20033;-67
2021/10/28 17:47:04;;;;;;;26.42;12.82;;;;;;;8.04;100.00;98888.25;5051877;28;20010;-67
2021/10/28 17:49:29;;;;;;;24.73;14.88;;;;;;;8.01;100.00;98888.59;5050349;28;20041;-66
2021/10/28 17:51:55;;;;;;;27.20;13.90;;;;;;;7.96;100.00;98884.78;5008513;28;1050985;-67
2021/10/28 17:54:20;;;;;;;27.17;14.88;;;;;;;7.98;100.00;98894.34;5040677;28;20338;-68
2021/10/28 17:56:46;;;;;;;24.00;12.70;;;;;;;7.87;100.00;98900.19;5048843;28;20033;-68
2021/10/28 17:59:11;;;;;;;26.90;13.73;;;;;;;7.70;100.00;98877.94;5032690;28;20048;-67
2021/10/28 18:01:41;;;;;;;22.67;12.45;;;;;;;7.74;100.00;98890.03;5027273;28;20048;-67
2021/10/28 18:04:07;;;;;;;19.75;12.43;;;;;;;7.78;100.00;98890.50;5034726;28;20034;-67
2021/10/28 18:06:33;;;;;;;21.30;12.77;;;;;;;7.68;100.00;98896.16;5035543;28;20025;-67
2021/10/28 18:09:02;;;;;;;22.77;13.23;;;;;;;7.66;100.00;98887.44;5038458;28;20395;-67
2021/10/28 18:11:27;;;;;;;22.60;14.18;;;;;;;7.58;100.00;98893.72;5034953;28;20033;-67
2021/10/28 18:13:57;;;;;;;29.17;14.45;;;;;;;7.40;100.00;98882.44;5035171;28;20052;-67
2021/10/28 18:16:26;;;;;;;26.20;16.20;;;;;;;7.28;100.00;98891.94;5032860;28;20025;-67
2021/10/28 18:18:56;;;;;;;23.77;14.18;;;;;;;7.27;100.00;98892.97;5032783;28;20036;-67
2021/10/28 18:21:23;;;;;;;24.20;14.70;;;;;;;7.14;100.00;98890.88;5034765;28;20025;-67
2021/10/28 18:23:49;;;;;;;27.33;15.43;;;;;;;7.05;100.00;98900.88;5034225;28;20548;-66
2021/10/28 18:26:19;;;;;;;24.92;13.55;;;;;;;7.10;100.00;98884.16;5035817;28;20026;-66
2021/10/28 18:28:45;;;;;;;27.20;14.30;;;;;;;7.03;100.00;98873.31;5034575;28;20483;-66
2021/10/28 18:31:11;;;;;;;23.90;12.80;;;;;;;6.90;100.00;98881.97;5036214;28;20049;-66
2021/10/28 18:33:36;;;;;;;22.80;13.32;;;;;;;7.01;100.00;98891.47;5037030;28;20029;-66
2021/10/28 18:36:02;;;;;;;36.42;14.65;;;;;;;6.94;100.00;98885.13;5035554;28;20037;-66
2021/10/28 18:38:30;;;;;;;25.75;14.10;;;;;;;6.92;100.00;98881.81;5035832;28;20029;-66
2021/10/28 18:40:56;;;;;;;25.67;15.75;;;;;;;6.83;100.00;98882.84;5035826;28;20033;-66
2021/10/28 18:43:21;;;;;;;29.42;15.32;;;;;;;6.80;100.00;98881.34;5035517;28;20101;-66
2021/10/28 18:45:48;;;;;;;26.02;14.75;;;;;;;6.78;100.00;98881.50;5033661;28;20025;-66
2021/10/28 18:48:14;;;;;;;26.63;14.63;;;;;;;6.79;100.00;98879.69;5033127;28;20036;-66
2021/10/28 18:50:40;;;;;;;30.08;15.95;;;;;;;6.72;100.00;98873.34;5034517;28;20021;-66
2021/10/28 18:53:05;;;;;;;26.42;13.80;;;;;;;6.68;100.00;98859.41;5035042;28;20571;-66
2021/10/28 18:55:30;;;;;;;28.45;14.00;;;;;;;6.57;100.00;98870.56;5031573;28;20426;-67
2021/10/28 18:57:56;;;;;;;25.40;14.50;;;;;;;6.60;100.00;98870.19;5034541;28;20056;-66
2021/10/28 19:00:22;;;;;;;27.42;14.65;;;;;;;6.49;100.00;98867.91;5034980;28;20399;-66
2021/10/28 19:02:47;;;;;;;22.63;13.77;;;;;;;6.42;100.00;98864.25;5035505;28;20029;-67
2021/10/28 19:05:13;;;;;;;25.65;13.68;;;;;;;6.24;100.00;98835.78;5035831;28;20021;-66
2021/10/28 19:07:39;;;;;;;26.27;14.20;;;;;;;6.52;100.00;98862.19;5035877;28;20040;-66
2021/10/28 19:10:04;;;;;;;25.48;14.13;;;;;;;6.32;100.00;98843.81;5030532;28;20075;-66
2021/10/28 19:12:30;;;;;;;25.40;14.32;;;;;;;6.40;100.00;98848.31;5034315;28;20026;-66
2021/10/28 19:14:55;;;;;;;23.35;13.50;;;;;;;6.41;100.00;98868.78;5033768;28;20529;-67
2021/10/28 19:17:21;;;;;;;23.80;13.68;;;;;;;6.38;100.00;98855.69;5034531;28;20439;-66
2021/10/28 19:19:46;;;;;;;24.45;13.18;;;;;;;6.45;100.00;98859.38;5034328;28;20135;-67
2021/10/28 19:22:12;;;;;;;43.03;13.85;;;;;;;6.42;100.00;98861.56;5036839;28;20055;-66
2021/10/28 19:24:37;;;;;;;24.00;13.07;;;;;;;6.34;100.00;98860.59;5034080;28;20475;-65
2021/10/28 19:27:03;;;;;;;28.92;13.65;;;;;;;6.19;100.00;98862.34;5034452;28;20064;-66
2021/10/28 19:29:31;;;;;;;24.13;13.20;;;;;;;6.11;100.00;98855.16;5032946;28;20032;-65
2021/10/28 19:32:03;;;;;;;31.02;15.48;;;;;;;6.03;100.00;98844.44;5034775;28;20064;-66
2021/10/28 19:34:34;;;;;;;32.50;17.05;;;;;;;5.95;100.00;98843.59;5033327;28;20178;-66
2021/10/28 19:37:09;;;;;;;41.00;22.33;;;;;;;5.86;100.00;98846.28;5031294;28;20038;-66
2021/10/28 19:47:18;;;;;;;31.20;18.08;;;;;;;5.60;100.00;98843.00;5034574;28;20040;-66
2021/10/28 19:49:45;;;;;;;33.25;18.42;;;;;;;5.79;100.00;98850.69;5041251;28;20029;-66
2021/10/28 19:52:13;;;;;;;31.40;17.25;;;;;;;5.71;100.00;98851.53;5046949;28;20033;-66
2021/10/28 19:54:46;;;;;;;38.13;19.13;;;;;;;5.65;100.00;98843.31;5041431;28;20066;-65
2021/10/28 19:57:20;;;;;;;44.45;22.95;;;;;;;5.64;100.00;98847.84;5050414;28;20028;-66
2021/10/28 20:00:01;;;;;;;59.35;27.92;;;;;;;5.68;100.00;98859.91;5054226;28;20021;-67
2021/10/28 20:21:02;;;;;;;32.65;13.13;;;;;;;5.13;100.00;98844.53;5050053;28;19920;-66
2021/10/28 20:23:27;;;;;;;29.52;13.73;;;;;;;5.05;100.00;98840.00;5049769;28;20029;-66
2021/10/28 20:25:52;;;;;;;27.67;14.02;;;;;;;5.02;100.00;98839.50;5035601;28;20372;-66
2021/10/28 20:28:18;;;;;;;30.85;12.85;;;;;;;5.14;100.00;98829.31;5033567;28;20537;-66
2021/10/28 20:31:06;;;;;;;24.27;11.98;;;;;;;5.11;100.00;98829.63;5034066;28;20109;-66
2021/10/28 20:33:31;;;;;;;21.52;11.38;;;;;;;5.05;100.00;98831.13;5032408;28;20045;-66
2021/10/28 20:38:40;;;;;;;22.20;11.80;;;;;;;4.97;100.00;98821.25;5031669;28;20036;-66
2021/10/28 20:41:05;;;;;;;25.65;12.45;;;;;;;4.99;100.00;98826.44;5033517;28;20041;-66
2021/10/28 20:43:33;;;;;;;24.08;12.63;;;;;;;5.02;100.00;98821.56;5033626;28;20121;-66
2021/10/28 20:45:58;;;;;;;26.70;13.20;;;;;;;4.97;100.00;98818.56;5032484;28;20065;-66